createdAt,value
2017-12-13T00:00:02.877Z,986.62
2017-12-13T00:01:09.845Z,986.62
2017-12-13T00:02:16.836Z,986.62
2017-12-13T00:03:23.688Z,986.64
2017-12-13T00:04:30.709Z,986.62
2017-12-13T00:05:37.728Z,986.56
2017-12-13T00:06:44.803Z,986.49
2017-12-13T00:07:51.772Z,986.42
2017-12-13T00:08:58.765Z,986.53
2017-12-13T00:10:05.756Z,986.51
2017-12-13T00:11:12.728Z,986.44
2017-12-13T00:12:19.573Z,986.38
2017-12-13T00:13:26.564Z,986.45
2017-12-13T00:14:33.563Z,986.41
2017-12-13T00:15:40.516Z,986.47
2017-12-13T00:16:47.560Z,986.42
2017-12-13T00:17:54.538Z,986.37
2017-12-13T00:19:01.450Z,986.39
2017-12-13T00:20:08.364Z,986.39
2017-12-13T00:21:15.324Z,986.40
2017-12-13T00:22:22.220Z,986.37
2017-12-13T00:23:29.344Z,986.37
2017-12-13T00:24:36.293Z,986.39
2017-12-13T00:25:43.351Z,986.39
2017-12-13T00:26:50.335Z,986.50
2017-12-13T00:27:57.407Z,986.45
2017-12-13T00:29:09.528Z,986.37
2017-12-13T00:30:11.428Z,986.38
2017-12-13T00:31:18.397Z,986.40
2017-12-13T00:32:25.517Z,986.42
2017-12-13T00:33:32.477Z,986.41
2017-12-13T00:34:39.411Z,986.40
2017-12-13T00:35:46.424Z,986.45
2017-12-13T00:36:53.368Z,986.37
2017-12-13T00:38:00.476Z,986.37
2017-12-13T00:39:07.464Z,986.32
2017-12-13T00:40:14.399Z,986.39
2017-12-13T00:41:21.358Z,986.43
2017-12-13T00:42:28.384Z,986.41
2017-12-13T00:43:35.253Z,986.43
2017-12-13T00:44:42.181Z,986.41
2017-12-13T00:45:49.160Z,986.46
2017-12-13T00:46:56.091Z,986.40
2017-12-13T00:48:03.141Z,986.49
2017-12-13T00:49:10.158Z,986.44
2017-12-13T00:50:17.275Z,986.42
2017-12-13T00:51:24.200Z,986.39
2017-12-13T00:52:31.117Z,986.42
2017-12-13T00:53:38.196Z,986.44
2017-12-13T00:54:45.138Z,986.43
2017-12-13T00:55:52.076Z,986.42
2017-12-13T00:56:59.073Z,986.41
2017-12-13T00:58:06.051Z,986.45
2017-12-13T00:59:13.073Z,986.37
2017-12-13T01:00:20.061Z,986.46
2017-12-13T01:01:27.023Z,986.52
2017-12-13T01:02:34.042Z,986.47
2017-12-13T01:03:40.969Z,986.52
2017-12-13T01:04:47.923Z,986.58
2017-12-13T01:05:54.889Z,986.50
2017-12-13T01:07:01.889Z,986.45
2017-12-13T01:08:08.821Z,986.50
2017-12-13T01:09:15.764Z,986.49
2017-12-13T01:10:22.676Z,986.56
2017-12-13T01:11:29.748Z,986.53
2017-12-13T01:12:36.743Z,986.55
2017-12-13T01:13:43.686Z,986.56
2017-12-13T01:14:50.811Z,986.52
2017-12-13T01:15:57.659Z,986.52
2017-12-13T01:17:04.528Z,986.54
2017-12-13T01:18:11.513Z,986.52
2017-12-13T01:19:18.429Z,986.53
2017-12-13T01:20:25.410Z,986.48
2017-12-13T01:21:32.389Z,986.41
2017-12-13T01:22:39.250Z,986.54
2017-12-13T01:23:46.236Z,986.54
2017-12-13T01:24:53.188Z,986.49
2017-12-13T01:26:00.176Z,986.50
2017-12-13T01:27:07.100Z,986.50
2017-12-13T01:28:14.101Z,986.48
2017-12-13T01:29:21.168Z,986.45
2017-12-13T01:30:28.181Z,986.37
2017-12-13T01:31:35.164Z,986.41
2017-12-13T01:32:42.182Z,986.36
2017-12-13T01:33:49.296Z,986.28
2017-12-13T01:34:56.122Z,986.31
2017-12-13T01:36:03.098Z,986.30
2017-12-13T01:37:10.141Z,986.37
2017-12-13T01:38:17.021Z,986.35
2017-12-13T01:39:23.868Z,986.38
2017-12-13T01:40:31.042Z,986.39
2017-12-13T01:41:38.099Z,986.37
2017-12-13T01:42:45.112Z,986.29
2017-12-13T01:43:52.093Z,986.28
2017-12-13T01:44:59.040Z,986.33
2017-12-13T01:46:06.034Z,986.29
2017-12-13T01:47:13.012Z,986.36
2017-12-13T01:48:19.840Z,986.26
2017-12-13T01:49:27.022Z,986.29
2017-12-13T01:50:33.919Z,986.22
2017-12-13T01:51:40.894Z,986.28
2017-12-13T01:52:47.899Z,986.24
2017-12-13T01:53:54.929Z,986.23
2017-12-13T01:55:01.996Z,986.27
2017-12-13T01:56:08.948Z,986.25
2017-12-13T01:57:15.816Z,986.20
2017-12-13T01:58:22.790Z,986.15
2017-12-13T01:59:29.897Z,986.16
2017-12-13T02:00:36.980Z,986.13
2017-12-13T02:01:43.965Z,986.15
2017-12-13T02:02:50.868Z,986.12
2017-12-13T02:03:57.964Z,986.06
2017-12-13T02:05:04.986Z,986.08
2017-12-13T02:07:19.039Z,986.00
2017-12-13T02:08:26.008Z,986.00
2017-12-13T02:09:33.180Z,986.09
2017-12-13T02:10:40.177Z,985.96
2017-12-13T02:11:47.150Z,985.98
2017-12-13T02:12:54.138Z,985.96
2017-12-13T02:14:01.149Z,985.96
2017-12-13T02:15:08.178Z,985.99
2017-12-13T02:16:15.297Z,985.98
2017-12-13T02:17:22.223Z,986.00
2017-12-13T02:18:29.202Z,985.95
2017-12-13T02:19:36.084Z,985.88
2017-12-13T02:20:43.037Z,985.93
2017-12-13T02:21:50.013Z,985.88
2017-12-13T02:22:57.159Z,985.93
2017-12-13T02:24:04.239Z,985.91
2017-12-13T02:25:11.212Z,985.90
2017-12-13T02:26:18.177Z,985.95
2017-12-13T02:27:25.109Z,985.90
2017-12-13T02:28:31.996Z,985.97
2017-12-13T02:29:39.018Z,985.97
2017-12-13T02:30:45.930Z,986.01
2017-12-13T02:31:53.085Z,985.96
2017-12-13T02:32:59.984Z,985.87
2017-12-13T02:34:07.028Z,986.01
2017-12-13T02:35:14.049Z,985.92
2017-12-13T02:36:20.999Z,985.85
2017-12-13T02:37:27.942Z,985.85
2017-12-13T02:38:34.921Z,985.89
2017-12-13T02:39:41.938Z,985.88
2017-12-13T02:40:48.632Z,985.77
2017-12-13T02:41:55.539Z,985.80
2017-12-13T02:43:02.529Z,985.73
2017-12-13T02:44:09.491Z,985.69
2017-12-13T02:45:16.456Z,985.75
2017-12-13T02:46:23.353Z,985.78
2017-12-13T02:47:30.422Z,985.71
2017-12-13T02:48:37.504Z,985.63
2017-12-13T02:49:44.595Z,985.65
2017-12-13T02:50:51.749Z,985.65
2017-12-13T02:51:58.714Z,985.63
2017-12-13T02:53:05.647Z,985.56
2017-12-13T02:54:12.448Z,985.46
2017-12-13T02:55:19.378Z,985.61
2017-12-13T02:56:26.522Z,985.51
2017-12-13T02:57:33.587Z,985.51
2017-12-13T02:58:40.608Z,985.47
2017-12-13T02:59:47.557Z,985.48
2017-12-13T03:00:54.617Z,985.50
2017-12-13T03:02:01.513Z,985.54
2017-12-13T03:03:08.123Z,985.51
2017-12-13T03:04:15.077Z,985.45
2017-12-13T03:05:22.108Z,985.38
2017-12-13T03:06:29.047Z,985.37
2017-12-13T03:07:35.996Z,985.39
2017-12-13T03:08:42.856Z,985.32
2017-12-13T03:09:49.774Z,985.36
2017-12-13T03:10:56.765Z,985.31
2017-12-13T03:12:03.691Z,985.31
2017-12-13T03:13:10.597Z,985.35
2017-12-13T03:14:17.616Z,985.34
2017-12-13T03:15:24.522Z,985.32
2017-12-13T03:16:31.425Z,985.36
2017-12-13T03:17:38.405Z,985.24
2017-12-13T03:18:45.307Z,985.25
2017-12-13T03:19:52.304Z,985.28
2017-12-13T03:20:59.373Z,985.15
2017-12-13T03:22:06.324Z,985.11
2017-12-13T03:23:13.346Z,985.18
2017-12-13T03:24:20.288Z,985.17
2017-12-13T03:25:27.220Z,985.18
2017-12-13T03:26:34.128Z,985.15
2017-12-13T03:27:41.328Z,985.11
2017-12-13T03:28:48.258Z,985.11
2017-12-13T03:29:55.117Z,985.11
2017-12-13T03:31:02.353Z,985.13
2017-12-13T03:32:09.280Z,985.01
2017-12-13T03:33:16.256Z,985.06
2017-12-13T03:34:23.236Z,985.09
2017-12-13T03:35:30.229Z,985.15
2017-12-13T03:36:37.184Z,985.09
2017-12-13T03:37:44.224Z,985.04
2017-12-13T03:38:51.221Z,984.99
2017-12-13T03:39:58.184Z,985.00
2017-12-13T03:41:05.129Z,984.96
2017-12-13T03:42:12.033Z,985.00
2017-12-13T03:43:18.952Z,985.01
2017-12-13T03:44:25.825Z,985.03
2017-12-13T03:45:33.033Z,984.92
2017-12-13T03:46:39.908Z,985.09
2017-12-13T03:47:46.803Z,985.03
2017-12-13T03:48:53.757Z,985.08
2017-12-13T03:50:00.770Z,985.03
2017-12-13T03:51:07.768Z,985.01
2017-12-13T03:52:14.768Z,985.03
2017-12-13T03:53:21.698Z,985.06
2017-12-13T03:54:28.706Z,985.04
2017-12-13T03:55:35.676Z,985.04
2017-12-13T03:56:42.630Z,985.02
2017-12-13T03:57:49.652Z,985.02
2017-12-13T03:58:56.538Z,984.94
2017-12-13T04:00:03.580Z,984.95
2017-12-13T04:01:10.484Z,984.89
2017-12-13T04:02:17.473Z,984.86
2017-12-13T04:03:24.348Z,984.93
2017-12-13T04:04:31.320Z,984.78
2017-12-13T04:05:38.232Z,984.83
2017-12-13T04:06:45.318Z,984.90
2017-12-13T04:07:52.348Z,984.77
2017-12-13T04:08:59.217Z,984.75
2017-12-13T04:10:06.049Z,984.80
2017-12-13T04:11:12.901Z,984.69
2017-12-13T04:12:19.940Z,984.73
2017-12-13T04:13:26.868Z,984.71
2017-12-13T04:14:33.848Z,984.68
2017-12-13T04:15:40.674Z,984.71
2017-12-13T04:16:47.828Z,984.62
2017-12-13T04:17:54.673Z,984.75
2017-12-13T04:19:01.605Z,984.63
2017-12-13T04:20:08.461Z,984.67
2017-12-13T04:21:15.437Z,984.71
2017-12-13T04:22:22.493Z,984.57
2017-12-13T04:23:29.583Z,984.69
2017-12-13T04:24:36.536Z,984.57
2017-12-13T04:25:43.405Z,984.61
2017-12-13T04:26:50.536Z,984.54
2017-12-13T04:27:57.403Z,984.51
2017-12-13T04:29:04.340Z,984.38
2017-12-13T04:30:11.316Z,984.45
2017-12-13T04:31:18.284Z,984.40
2017-12-13T04:32:25.276Z,984.36
2017-12-13T04:33:32.211Z,984.41
2017-12-13T04:34:39.178Z,984.45
2017-12-13T04:35:46.165Z,984.48
2017-12-13T04:36:53.059Z,984.46
2017-12-13T04:38:00.016Z,984.51
2017-12-13T04:39:06.963Z,984.49
2017-12-13T04:40:13.908Z,984.47
2017-12-13T04:41:20.890Z,984.51
2017-12-13T04:42:27.848Z,984.53
2017-12-13T04:43:34.768Z,984.55
2017-12-13T04:44:41.726Z,984.49
2017-12-13T04:45:48.620Z,984.45
2017-12-13T04:46:55.734Z,984.44
2017-12-13T04:48:02.724Z,984.38
2017-12-13T04:49:09.671Z,984.45
2017-12-13T04:50:16.670Z,984.40
2017-12-13T04:51:23.625Z,984.39
2017-12-13T04:52:30.486Z,984.37
2017-12-13T04:53:37.440Z,984.30
2017-12-13T04:54:44.349Z,984.30
2017-12-13T04:55:51.217Z,984.34
2017-12-13T04:56:58.176Z,984.26
2017-12-13T04:58:05.333Z,984.31
2017-12-13T04:59:12.167Z,984.28
2017-12-13T05:00:19.350Z,984.20
2017-12-13T05:01:26.363Z,984.25
2017-12-13T05:02:33.321Z,984.27
2017-12-13T05:03:40.217Z,984.30
2017-12-13T05:04:47.325Z,984.38
2017-12-13T05:05:54.278Z,984.30
2017-12-13T05:07:01.237Z,984.22
2017-12-13T05:08:08.163Z,984.24
2017-12-13T05:09:15.077Z,984.26
2017-12-13T05:10:22.115Z,984.18
2017-12-13T05:11:29.113Z,984.20
2017-12-13T05:12:36.072Z,984.28
2017-12-13T05:13:43.053Z,984.20
2017-12-13T05:14:49.993Z,984.11
2017-12-13T05:15:56.973Z,983.97
2017-12-13T05:17:03.956Z,984.11
2017-12-13T05:18:10.960Z,983.98
2017-12-13T05:19:18.072Z,984.11
2017-12-13T05:20:25.120Z,984.06
2017-12-13T05:21:32.048Z,983.99
2017-12-13T05:22:39.057Z,984.06
2017-12-13T05:23:45.969Z,984.05
2017-12-13T05:24:52.945Z,984.00
2017-12-13T05:25:59.904Z,983.93
2017-12-13T05:27:06.895Z,983.92
2017-12-13T05:28:13.859Z,983.91
2017-12-13T05:29:20.789Z,983.88
2017-12-13T05:30:27.870Z,983.88
2017-12-13T05:31:34.824Z,983.90
2017-12-13T05:32:41.718Z,983.80
2017-12-13T05:33:48.718Z,983.82
2017-12-13T05:34:55.673Z,983.86
2017-12-13T05:36:02.508Z,983.90
2017-12-13T05:37:09.387Z,983.85
2017-12-13T05:38:16.218Z,983.77
2017-12-13T05:39:23.209Z,983.79
2017-12-13T05:40:30.109Z,983.78
2017-12-13T05:41:37.016Z,983.86
2017-12-13T05:42:43.942Z,983.87
2017-12-13T05:43:51.199Z,983.81
2017-12-13T05:44:58.201Z,983.76
2017-12-13T05:46:05.228Z,983.77
2017-12-13T05:47:12.130Z,983.69
2017-12-13T05:48:19.088Z,983.69
2017-12-13T05:49:26.024Z,983.58
2017-12-13T05:50:33.069Z,983.64
2017-12-13T05:51:39.606Z,983.53
2017-12-13T05:52:46.845Z,983.56
2017-12-13T05:53:53.685Z,983.45
2017-12-13T05:55:00.294Z,983.46
2017-12-13T05:56:06.968Z,983.47
2017-12-13T05:57:14.002Z,983.45
2017-12-13T05:58:21.022Z,983.46
2017-12-13T05:59:27.753Z,983.39
2017-12-13T06:00:34.886Z,983.41
2017-12-13T06:01:41.228Z,983.38
2017-12-13T06:02:48.105Z,983.45
2017-12-13T06:03:55.036Z,983.38
2017-12-13T06:05:02.036Z,983.33
2017-12-13T06:06:09.080Z,983.24
2017-12-13T06:07:16.023Z,983.29
2017-12-13T06:08:22.925Z,983.23
2017-12-13T06:09:30.632Z,983.26
2017-12-13T06:10:36.597Z,983.19
2017-12-13T06:11:43.533Z,983.26
2017-12-13T06:12:50.469Z,983.21
2017-12-13T06:13:57.352Z,983.17
2017-12-13T06:15:04.544Z,983.22
2017-12-13T06:16:11.452Z,983.20
2017-12-13T06:17:18.676Z,983.17
2017-12-13T06:18:25.857Z,983.09
2017-12-13T06:19:32.862Z,983.16
2017-12-13T06:20:39.961Z,983.16
2017-12-13T06:21:46.828Z,983.08
2017-12-13T06:22:53.927Z,983.11
2017-12-13T06:24:01.029Z,983.08
2017-12-13T06:25:07.994Z,983.09
2017-12-13T06:26:14.877Z,983.02
2017-12-13T06:27:21.845Z,983.02
2017-12-13T06:28:28.840Z,982.99
2017-12-13T06:29:35.776Z,982.92
2017-12-13T06:30:42.808Z,982.97
2017-12-13T06:31:49.688Z,982.92
2017-12-13T06:32:56.671Z,982.92
2017-12-13T06:34:03.668Z,982.85
2017-12-13T06:35:10.692Z,982.90
2017-12-13T06:36:17.786Z,982.97
2017-12-13T06:37:24.878Z,982.85
2017-12-13T06:38:31.957Z,982.89
2017-12-13T06:39:38.990Z,982.88
2017-12-13T06:40:45.966Z,982.90
2017-12-13T06:41:52.921Z,982.81
2017-12-13T06:42:59.796Z,982.81
2017-12-13T06:44:06.748Z,982.75
2017-12-13T06:45:13.760Z,982.77
2017-12-13T06:46:20.889Z,982.82
2017-12-13T06:47:27.931Z,982.79
2017-12-13T06:48:34.959Z,982.72
2017-12-13T06:49:41.977Z,982.77
2017-12-13T06:50:48.857Z,982.74
2017-12-13T06:51:55.804Z,982.76
2017-12-13T06:53:03.047Z,982.77
2017-12-13T06:54:10.127Z,982.74
2017-12-13T06:55:17.258Z,982.71
2017-12-13T06:56:24.197Z,982.68
2017-12-13T06:57:31.305Z,982.68
2017-12-13T06:58:38.414Z,982.67
2017-12-13T06:59:45.452Z,982.57
2017-12-13T07:00:52.568Z,982.69
2017-12-13T07:01:59.365Z,982.60
2017-12-13T07:03:06.548Z,982.61
2017-12-13T07:04:13.677Z,982.55
2017-12-13T07:05:20.625Z,982.53
2017-12-13T07:06:27.625Z,982.44
2017-12-13T07:07:34.671Z,982.43
2017-12-13T07:08:41.596Z,982.39
2017-12-13T07:09:48.537Z,982.45
2017-12-13T07:10:55.508Z,982.36
2017-12-13T07:12:02.472Z,982.30
2017-12-13T07:13:09.444Z,982.21
2017-12-13T07:14:16.601Z,982.32
2017-12-13T07:15:23.577Z,982.28
2017-12-13T07:16:30.434Z,982.15
2017-12-13T07:17:37.436Z,982.34
2017-12-13T07:18:44.733Z,982.22
2017-12-13T07:19:51.668Z,982.24
2017-12-13T07:20:58.640Z,982.04
2017-12-13T07:22:05.545Z,982.08
2017-12-13T07:23:12.757Z,982.02
2017-12-13T07:24:19.692Z,982.03
2017-12-13T07:25:26.817Z,982.09
2017-12-13T07:26:33.765Z,982.05
2017-12-13T07:27:40.817Z,982.06
2017-12-13T07:28:47.934Z,981.95
2017-12-13T07:29:54.912Z,982.01
2017-12-13T07:31:01.964Z,981.94
2017-12-13T07:32:09.082Z,981.99
2017-12-13T07:33:15.953Z,981.86
2017-12-13T07:34:22.923Z,981.94
2017-12-13T07:35:29.866Z,981.81
2017-12-13T07:36:36.801Z,981.84
2017-12-13T07:37:43.793Z,981.80
2017-12-13T07:38:50.772Z,981.81
2017-12-13T07:39:57.693Z,981.74
2017-12-13T07:41:04.779Z,981.72
2017-12-13T07:42:11.403Z,981.69
2017-12-13T07:43:18.352Z,981.65
2017-12-13T07:44:25.316Z,981.53
2017-12-13T07:45:32.401Z,981.56
2017-12-13T07:46:39.360Z,981.54
2017-12-13T07:47:46.345Z,981.52
2017-12-13T07:48:53.375Z,981.48
2017-12-13T07:50:00.024Z,981.45
2017-12-13T07:51:07.019Z,981.51
2017-12-13T07:52:14.048Z,981.48
2017-12-13T07:53:20.893Z,981.42
2017-12-13T07:54:27.882Z,981.47
2017-12-13T07:55:34.409Z,981.46
2017-12-13T07:56:41.464Z,981.36
2017-12-13T07:57:48.448Z,981.47
2017-12-13T07:58:55.393Z,981.46
2017-12-13T08:00:02.369Z,981.37
2017-12-13T08:01:09.369Z,981.42
2017-12-13T08:02:16.324Z,981.39
2017-12-13T08:03:23.322Z,981.37
2017-12-13T08:04:30.288Z,981.36
2017-12-13T08:05:37.180Z,981.29
2017-12-13T08:06:44.316Z,981.33
2017-12-13T08:07:51.181Z,981.34
2017-12-13T08:08:57.576Z,981.33
2017-12-13T08:10:04.704Z,981.28
2017-12-13T08:11:11.729Z,981.30
2017-12-13T08:12:18.824Z,981.18
2017-12-13T08:13:25.690Z,981.28
2017-12-13T08:14:32.794Z,981.24
2017-12-13T08:15:39.796Z,981.24
2017-12-13T08:16:46.833Z,981.11
2017-12-13T08:17:54.615Z,981.15
2017-12-13T08:19:00.518Z,981.17
2017-12-13T08:20:08.334Z,981.20
2017-12-13T08:21:14.588Z,981.19
2017-12-13T08:22:22.741Z,981.13
2017-12-13T08:23:28.650Z,981.17
2017-12-13T08:24:35.724Z,981.10
2017-12-13T08:25:42.692Z,981.07
2017-12-13T08:26:49.654Z,981.20
2017-12-13T08:27:56.653Z,981.10
2017-12-13T08:29:03.863Z,981.08
2017-12-13T08:30:10.349Z,981.01
2017-12-13T08:31:17.525Z,981.06
2017-12-13T08:32:24.449Z,980.96
2017-12-13T08:33:31.420Z,981.00
2017-12-13T08:34:38.389Z,980.94
2017-12-13T08:35:45.306Z,980.90
2017-12-13T08:36:52.298Z,980.89
2017-12-13T08:37:59.308Z,980.89
2017-12-13T08:39:06.211Z,980.92
2017-12-13T08:40:13.204Z,980.92
2017-12-13T08:41:20.163Z,980.83
2017-12-13T08:42:27.297Z,980.91
2017-12-13T08:43:33.933Z,980.81
2017-12-13T08:44:40.976Z,980.83
2017-12-13T08:45:47.933Z,980.82
2017-12-13T08:46:54.876Z,980.81
2017-12-13T08:48:03.896Z,980.82
2017-12-13T08:49:10.095Z,980.74
2017-12-13T08:50:16.228Z,980.74
2017-12-13T08:51:23.233Z,980.71
2017-12-13T08:52:30.151Z,980.68
2017-12-13T08:53:37.413Z,980.67
2017-12-13T08:54:44.220Z,980.61
2017-12-13T08:55:51.101Z,980.57
2017-12-13T08:56:58.062Z,980.55
2017-12-13T08:58:05.165Z,980.67
2017-12-13T08:59:13.369Z,980.61
2017-12-13T09:00:18.601Z,980.61
2017-12-13T09:01:25.575Z,980.54
2017-12-13T09:02:32.484Z,980.58
2017-12-13T09:03:39.497Z,980.56
2017-12-13T09:04:46.538Z,980.50
2017-12-13T09:05:53.487Z,980.57
2017-12-13T09:07:00.022Z,980.58
2017-12-13T09:08:07.005Z,980.47
2017-12-13T09:09:14.109Z,980.45
2017-12-13T09:10:21.159Z,980.47
2017-12-13T09:11:28.070Z,980.46
2017-12-13T09:12:35.230Z,980.42
2017-12-13T09:13:42.442Z,980.43
2017-12-13T09:14:49.588Z,980.42
2017-12-13T09:15:56.824Z,980.44
2017-12-13T09:17:03.479Z,980.34
2017-12-13T09:18:10.256Z,980.30
2017-12-13T09:19:17.460Z,980.38
2017-12-13T09:20:23.945Z,980.38
2017-12-13T09:21:31.086Z,980.29
2017-12-13T09:22:37.864Z,980.26
2017-12-13T09:23:44.855Z,980.22
2017-12-13T09:24:54.506Z,980.29
2017-12-13T09:26:00.068Z,980.23
2017-12-13T09:27:05.681Z,980.21
2017-12-13T09:28:12.241Z,980.19
2017-12-13T09:29:19.265Z,980.27
2017-12-13T09:30:25.688Z,980.20
2017-12-13T09:31:32.337Z,980.14
2017-12-13T09:32:39.150Z,980.11
2017-12-13T09:33:46.001Z,980.09
2017-12-13T09:34:53.094Z,980.12
2017-12-13T09:35:59.963Z,980.06
2017-12-13T09:37:06.910Z,980.04
2017-12-13T09:38:13.907Z,980.07
2017-12-13T09:39:20.882Z,980.13
2017-12-13T09:40:27.821Z,980.06
2017-12-13T09:41:34.861Z,980.02
2017-12-13T09:42:41.995Z,979.95
2017-12-13T09:43:49.150Z,979.92
2017-12-13T09:44:56.239Z,979.88
2017-12-13T09:46:02.915Z,979.99
2017-12-13T09:47:09.920Z,979.91
2017-12-13T09:48:16.913Z,979.95
2017-12-13T09:49:23.614Z,979.86
2017-12-13T09:50:30.644Z,979.89
2017-12-13T09:51:37.150Z,979.85
2017-12-13T09:52:44.104Z,979.86
2017-12-13T09:53:50.594Z,979.84
2017-12-13T09:54:57.722Z,979.73
2017-12-13T09:56:04.724Z,979.75
2017-12-13T09:57:11.816Z,979.73
2017-12-13T09:58:18.482Z,979.78
2017-12-13T09:59:25.665Z,979.64
2017-12-13T10:00:32.341Z,979.68
2017-12-13T10:01:39.387Z,979.64
2017-12-13T10:02:46.291Z,979.59
2017-12-13T10:03:53.204Z,979.61
2017-12-13T10:05:00.153Z,979.58
2017-12-13T10:06:07.218Z,979.66
2017-12-13T10:07:14.189Z,979.52
2017-12-13T10:08:21.275Z,979.56
2017-12-13T10:09:28.517Z,979.54
2017-12-13T10:10:35.073Z,979.48
2017-12-13T10:11:42.341Z,979.45
2017-12-13T10:12:49.393Z,979.46
2017-12-13T10:13:56.465Z,979.43
2017-12-13T10:15:03.537Z,979.38
2017-12-13T10:16:10.530Z,979.38
2017-12-13T10:17:17.517Z,979.33
2017-12-13T10:18:24.481Z,979.27
2017-12-13T10:19:31.464Z,979.28
2017-12-13T10:20:38.366Z,979.27
2017-12-13T10:21:45.273Z,979.27
2017-12-13T10:22:52.486Z,979.15
2017-12-13T10:23:59.137Z,979.12
2017-12-13T10:25:06.128Z,979.04
2017-12-13T10:26:13.256Z,979.02
2017-12-13T10:27:20.372Z,978.96
2017-12-13T10:28:27.231Z,978.92
2017-12-13T10:29:34.308Z,978.92
2017-12-13T10:30:41.317Z,978.84
2017-12-13T10:31:48.304Z,978.80
2017-12-13T10:32:56.574Z,978.75
2017-12-13T10:34:02.520Z,978.67
2017-12-13T10:35:09.182Z,978.70
2017-12-13T10:36:17.322Z,978.57
2017-12-13T10:37:23.320Z,978.63
2017-12-13T10:38:31.186Z,978.52
2017-12-13T10:39:37.023Z,978.57
2017-12-13T10:40:43.735Z,978.44
2017-12-13T10:41:50.807Z,978.51
2017-12-13T10:42:57.820Z,978.49
2017-12-13T10:44:04.784Z,978.49
2017-12-13T10:45:11.954Z,978.41
2017-12-13T10:46:18.941Z,978.32
2017-12-13T10:47:26.062Z,978.37
2017-12-13T10:48:33.302Z,978.41
2017-12-13T10:49:40.745Z,978.24
2017-12-13T10:50:47.283Z,978.22
2017-12-13T10:51:54.055Z,978.24
2017-12-13T10:53:00.657Z,978.26
2017-12-13T10:54:07.481Z,978.13
2017-12-13T10:55:14.461Z,978.22
2017-12-13T10:56:21.804Z,978.13
2017-12-13T10:57:28.312Z,978.04
2017-12-13T10:58:35.384Z,978.00
2017-12-13T10:59:42.024Z,978.06
2017-12-13T11:00:48.969Z,978.06
2017-12-13T11:01:55.823Z,977.92
2017-12-13T11:03:02.880Z,977.95
2017-12-13T11:04:10.049Z,977.92
2017-12-13T11:05:17.040Z,977.91
2017-12-13T11:06:24.262Z,977.83
2017-12-13T11:07:31.367Z,977.91
2017-12-13T11:08:38.682Z,977.82
2017-12-13T11:09:45.216Z,977.74
2017-12-13T11:10:52.366Z,977.63
2017-12-13T11:11:59.733Z,977.80
2017-12-13T11:13:06.375Z,977.64
2017-12-13T11:14:13.193Z,977.61
2017-12-13T11:15:19.804Z,977.65
2017-12-13T11:16:26.811Z,977.56
2017-12-13T11:17:33.841Z,977.53
2017-12-13T11:18:40.808Z,977.58
2017-12-13T11:19:47.983Z,977.50
2017-12-13T11:20:54.830Z,977.50
2017-12-13T11:22:01.807Z,977.44
2017-12-13T11:23:08.771Z,977.46
2017-12-13T11:24:16.781Z,977.38
2017-12-13T11:25:22.948Z,977.30
2017-12-13T11:26:30.040Z,977.24
2017-12-13T11:27:36.552Z,977.28
2017-12-13T11:28:43.827Z,977.19
2017-12-13T11:29:50.834Z,977.26
2017-12-13T11:30:57.932Z,977.25
2017-12-13T11:32:04.576Z,977.21
2017-12-13T11:33:11.393Z,977.11
2017-12-13T11:34:18.349Z,977.11
2017-12-13T11:35:25.158Z,977.11
2017-12-13T11:36:32.098Z,976.99
2017-12-13T11:37:39.449Z,977.06
2017-12-13T11:38:46.167Z,976.96
2017-12-13T11:39:53.274Z,977.07
2017-12-13T11:41:00.340Z,976.96
2017-12-13T11:42:06.973Z,976.97
2017-12-13T11:43:13.560Z,976.85
2017-12-13T11:44:20.775Z,976.85
2017-12-13T11:45:27.828Z,976.87
2017-12-13T11:46:34.869Z,976.81
2017-12-13T11:47:41.896Z,976.78
2017-12-13T11:48:48.955Z,976.82
2017-12-13T11:49:55.973Z,976.71
2017-12-13T11:51:03.018Z,976.79
2017-12-13T11:52:09.844Z,976.63
2017-12-13T11:53:16.658Z,976.63
2017-12-13T11:54:23.788Z,976.62
2017-12-13T11:55:30.677Z,976.58
2017-12-13T11:56:37.601Z,976.55
2017-12-13T11:57:44.218Z,976.59
2017-12-13T11:58:51.042Z,976.56
2017-12-13T11:59:58.422Z,976.58
2017-12-13T12:01:05.481Z,976.54
2017-12-13T12:02:12.559Z,976.57
2017-12-13T12:03:19.703Z,976.43
2017-12-13T12:04:26.441Z,976.49
2017-12-13T12:05:33.609Z,976.39
2017-12-13T12:06:40.629Z,976.48
2017-12-13T12:07:47.693Z,976.38
2017-12-13T12:08:54.806Z,976.40
2017-12-13T12:10:02.012Z,976.43
2017-12-13T12:11:08.485Z,976.35
2017-12-13T12:12:15.618Z,976.29
2017-12-13T12:13:22.769Z,976.26
2017-12-13T12:14:29.594Z,976.24
2017-12-13T12:15:36.290Z,976.23
2017-12-13T12:16:42.956Z,976.13
2017-12-13T12:17:50.280Z,976.24
2017-12-13T12:18:57.148Z,976.20
2017-12-13T12:20:04.319Z,976.17
2017-12-13T12:21:11.059Z,976.10
2017-12-13T12:22:18.088Z,976.09
2017-12-13T12:23:25.129Z,976.07
2017-12-13T12:24:32.153Z,976.02
2017-12-13T12:25:39.198Z,976.06
2017-12-13T12:26:46.240Z,975.98
2017-12-13T12:27:53.376Z,976.03
2017-12-13T12:29:00.262Z,975.93
2017-12-13T12:30:07.207Z,975.97
2017-12-13T12:31:14.303Z,976.01
2017-12-13T12:32:21.048Z,975.96
2017-12-13T12:33:28.257Z,975.97
2017-12-13T12:34:35.326Z,975.86
2017-12-13T12:35:42.373Z,975.88
2017-12-13T12:36:49.398Z,975.71
2017-12-13T12:37:56.449Z,975.76
2017-12-13T12:39:03.492Z,975.73
2017-12-13T12:40:10.567Z,975.77
2017-12-13T12:41:17.679Z,975.73
2017-12-13T12:42:24.777Z,975.70
2017-12-13T12:43:31.749Z,975.64
2017-12-13T12:44:38.674Z,975.63
2017-12-13T12:45:45.746Z,975.57
2017-12-13T12:46:52.600Z,975.59
2017-12-13T12:47:59.564Z,975.53
2017-12-13T12:49:06.486Z,975.45
2017-12-13T12:50:13.420Z,975.56
2017-12-13T12:51:20.517Z,975.51
2017-12-13T12:52:27.487Z,975.39
2017-12-13T12:53:34.457Z,975.47
2017-12-13T12:54:41.584Z,975.39
2017-12-13T12:55:48.707Z,975.39
2017-12-13T12:56:55.840Z,975.35
2017-12-13T12:58:02.642Z,975.39
2017-12-13T12:59:09.596Z,975.32
2017-12-13T13:00:16.616Z,975.26
2017-12-13T13:01:23.629Z,975.28
2017-12-13T13:02:30.548Z,975.24
2017-12-13T13:03:37.552Z,975.28
2017-12-13T13:04:44.733Z,975.28
2017-12-13T13:05:51.625Z,975.21
2017-12-13T13:06:58.503Z,975.33
2017-12-13T13:08:05.881Z,975.19
2017-12-13T13:09:12.563Z,975.30
2017-12-13T13:10:19.173Z,975.24
2017-12-13T13:11:26.306Z,975.22
2017-12-13T13:12:32.877Z,975.25
2017-12-13T13:13:40.237Z,975.17
2017-12-13T13:14:46.818Z,975.18
2017-12-13T13:15:53.738Z,975.05
2017-12-13T13:17:00.890Z,975.02
2017-12-13T13:18:07.726Z,974.97
2017-12-13T13:19:14.425Z,974.97
2017-12-13T13:20:21.385Z,975.08
2017-12-13T13:21:28.307Z,974.96
2017-12-13T13:22:35.319Z,974.95
2017-12-13T13:23:42.422Z,974.95
2017-12-13T13:24:49.437Z,974.91
2017-12-13T13:25:56.631Z,974.93
2017-12-13T13:27:05.190Z,974.84
2017-12-13T13:28:10.534Z,974.85
2017-12-13T13:29:17.545Z,974.82
2017-12-13T13:30:24.184Z,974.77
2017-12-13T13:31:31.138Z,974.85
2017-12-13T13:32:37.681Z,974.80
2017-12-13T13:33:45.008Z,974.71
2017-12-13T13:34:51.631Z,974.74
2017-12-13T13:35:58.921Z,974.73
2017-12-13T13:37:05.617Z,974.66
2017-12-13T13:38:12.835Z,974.66
2017-12-13T13:39:19.296Z,974.60
2017-12-13T13:40:26.508Z,974.59
2017-12-13T13:41:33.296Z,974.53
2017-12-13T13:42:40.550Z,974.54
2017-12-13T13:43:47.529Z,974.50
2017-12-13T13:44:54.654Z,974.54
2017-12-13T13:46:01.620Z,974.45
2017-12-13T13:47:08.728Z,974.40
2017-12-13T13:48:15.745Z,974.47
2017-12-13T13:49:22.949Z,974.39
2017-12-13T13:50:30.955Z,974.43
2017-12-13T13:51:37.053Z,974.43
2017-12-13T13:52:44.101Z,974.46
2017-12-13T13:53:51.173Z,974.41
2017-12-13T13:54:58.110Z,974.33
2017-12-13T13:56:04.728Z,974.37